sensor_id;sensor_type;location;lat;lon;timestamp;P1;durP1;ratioP1;P2;durP2;ratioP2
22929;SDS011;11630;42.660;23.292;2022-09-09T00:01:49;10.27;;;9.03;;
22929;SDS011;11630;42.660;23.292;2022-09-09T00:04:26;14.53;;;9.23;;
22929;SDS011;11630;42.660;23.292;2022-09-09T00:07:01;11.10;;;9.27;;
22929;SDS011;11630;42.660;23.292;2022-09-09T00:09:42;11.60;;;9.93;;
22929;SDS011;11630;42.660;23.292;2022-09-09T00:12:14;12.73;;;9.07;;
22929;SDS011;11630;42.660;23.292;2022-09-09T00:14:54;12.47;;;9.43;;
22929;SDS011;11630;42.660;23.292;2022-09-09T00:17:31;13.13;;;9.13;;
22929;SDS011;11630;42.660;23.292;2022-09-09T00:20:06;9.50;;;8.50;;
22929;SDS011;11630;42.660;23.292;2022-09-09T00:22:53;13.00;;;9.70;;
22929;SDS011;11630;42.660;23.292;2022-09-09T00:25:26;12.63;;;9.43;;
22929;SDS011;11630;42.660;23.292;2022-09-09T00:28:01;12.63;;;9.43;;
22929;SDS011;11630;42.660;23.292;2022-09-09T00:30:34;11.73;;;9.53;;
22929;SDS011;11630;42.660;23.292;2022-09-09T00:33:10;10.50;;;9.50;;
22929;SDS011;11630;42.660;23.292;2022-09-09T00:35:58;12.37;;;9.47;;
22929;SDS011;11630;42.660;23.292;2022-09-09T00:38:36;11.90;;;9.37;;
22929;SDS011;11630;42.660;23.292;2022-09-09T00:41:10;15.33;;;9.27;;
22929;SDS011;11630;42.660;23.292;2022-09-09T00:44:00;12.63;;;8.97;;
22929;SDS011;11630;42.660;23.292;2022-09-09T00:46:41;12.87;;;9.40;;
22929;SDS011;11630;42.660;23.292;2022-09-09T00:54:55;13.87;;;8.87;;
22929;SDS011;11630;42.660;23.292;2022-09-09T00:57:27;11.03;;;9.93;;
22929;SDS011;11630;42.660;23.292;2022-09-09T01:02:52;14.10;;;9.60;;
22929;SDS011;11630;42.660;23.292;2022-09-09T01:08:08;11.67;;;9.47;;
22929;SDS011;11630;42.660;23.292;2022-09-09T01:10:43;10.60;;;9.43;;
22929;SDS011;11630;42.660;23.292;2022-09-09T01:13:27;13.70;;;9.60;;
22929;SDS011;11630;42.660;23.292;2022-09-09T01:16:01;10.43;;;9.30;;
22929;SDS011;11630;42.660;23.292;2022-09-09T01:18:43;13.60;;;9.17;;
22929;SDS011;11630;42.660;23.292;2022-09-09T01:21:19;14.30;;;9.60;;
22929;SDS011;11630;42.660;23.292;2022-09-09T01:26:45;11.47;;;9.40;;
22929;SDS011;11630;42.660;23.292;2022-09-09T01:29:17;10.83;;;8.87;;
22929;SDS011;11630;42.660;23.292;2022-09-09T01:34:33;11.03;;;8.50;;
22929;SDS011;11630;42.660;23.292;2022-09-09T01:37:09;10.17;;;9.00;;
22929;SDS011;11630;42.660;23.292;2022-09-09T01:39:36;9.33;;;8.27;;
22929;SDS011;11630;42.660;23.292;2022-09-09T01:42:09;10.50;;;8.87;;
22929;SDS011;11630;42.660;23.292;2022-09-09T01:44:43;12.70;;;9.27;;
22929;SDS011;11630;42.660;23.292;2022-09-09T01:47:14;11.97;;;9.07;;
22929;SDS011;11630;42.660;23.292;2022-09-09T01:49:45;11.13;;;9.23;;
22929;SDS011;11630;42.660;23.292;2022-09-09T01:52:16;13.90;;;9.30;;
22929;SDS011;11630;42.660;23.292;2022-09-09T01:54:47;10.40;;;8.53;;
22929;SDS011;11630;42.660;23.292;2022-09-09T01:57:21;9.90;;;8.87;;
22929;SDS011;11630;42.660;23.292;2022-09-09T02:00:04;11.20;;;8.27;;
22929;SDS011;11630;42.660;23.292;2022-09-09T02:05:44;18.37;;;8.83;;
22929;SDS011;11630;42.660;23.292;2022-09-09T02:08:33;11.63;;;9.10;;
22929;SDS011;11630;42.660;23.292;2022-09-09T02:10:59;19.47;;;9.57;;
22929;SDS011;11630;42.660;23.292;2022-09-09T02:13:32;10.93;;;9.80;;
22929;SDS011;11630;42.660;23.292;2022-09-09T02:16:08;9.40;;;8.50;;
22929;SDS011;11630;42.660;23.292;2022-09-09T02:18:42;13.77;;;8.90;;
22929;SDS011;11630;42.660;23.292;2022-09-09T02:21:15;10.60;;;9.20;;
22929;SDS011;11630;42.660;23.292;2022-09-09T02:23:49;12.63;;;9.73;;
22929;SDS011;11630;42.660;23.292;2022-09-09T02:26:21;14.00;;;9.90;;
22929;SDS011;11630;42.660;23.292;2022-09-09T02:28:53;9.90;;;8.90;;
22929;SDS011;11630;42.660;23.292;2022-09-09T02:31:26;10.50;;;9.53;;
22929;SDS011;11630;42.660;23.292;2022-09-09T02:34:00;12.00;;;10.07;;
22929;SDS011;11630;42.660;23.292;2022-09-09T02:36:34;11.77;;;9.83;;
22929;SDS011;11630;42.660;23.292;2022-09-09T02:39:08;11.57;;;10.30;;
22929;SDS011;11630;42.660;23.292;2022-09-09T02:41:40;18.43;;;8.93;;
22929;SDS011;11630;42.660;23.292;2022-09-09T02:44:11;12.87;;;10.10;;
22929;SDS011;11630;42.660;23.292;2022-09-09T02:46:47;11.60;;;10.40;;
22929;SDS011;11630;42.660;23.292;2022-09-09T02:49:19;13.33;;;9.17;;
22929;SDS011;11630;42.660;23.292;2022-09-09T02:51:53;12.10;;;9.77;;
22929;SDS011;11630;42.660;23.292;2022-09-09T02:54:32;15.80;;;9.90;;
22929;SDS011;11630;42.660;23.292;2022-09-09T02:57:10;12.07;;;9.97;;
22929;SDS011;11630;42.660;23.292;2022-09-09T02:59:44;11.00;;;9.90;;
22929;SDS011;11630;42.660;23.292;2022-09-09T03:02:15;10.50;;;9.40;;
22929;SDS011;11630;42.660;23.292;2022-09-09T03:04:46;13.27;;;9.23;;
22929;SDS011;11630;42.660;23.292;2022-09-09T03:07:19;12.07;;;10.20;;
22929;SDS011;11630;42.660;23.292;2022-09-09T03:09:48;11.43;;;10.23;;
22929;SDS011;11630;42.660;23.292;2022-09-09T03:12:22;12.07;;;10.10;;
22929;SDS011;11630;42.660;23.292;2022-09-09T03:14:52;17.50;;;10.80;;
22929;SDS011;11630;42.660;23.292;2022-09-09T03:17:23;15.17;;;10.80;;
22929;SDS011;11630;42.660;23.292;2022-09-09T03:19:53;16.27;;;10.00;;
22929;SDS011;11630;42.660;23.292;2022-09-09T03:22:24;11.20;;;9.97;;
22929;SDS011;11630;42.660;23.292;2022-09-09T03:24:55;15.17;;;9.43;;
22929;SDS011;11630;42.660;23.292;2022-09-09T03:27:27;17.27;;;11.10;;
22929;SDS011;11630;42.660;23.292;2022-09-09T03:29:58;11.17;;;9.97;;
22929;SDS011;11630;42.660;23.292;2022-09-09T03:32:29;13.77;;;10.47;;
22929;SDS011;11630;42.660;23.292;2022-09-09T03:35:00;12.77;;;11.03;;
22929;SDS011;11630;42.660;23.292;2022-09-09T03:37:30;12.17;;;10.53;;
22929;SDS011;11630;42.660;23.292;2022-09-09T03:40:00;11.63;;;10.27;;
22929;SDS011;11630;42.660;23.292;2022-09-09T03:42:31;19.43;;;11.07;;
22929;SDS011;11630;42.660;23.292;2022-09-09T03:45:03;14.37;;;9.70;;
22929;SDS011;11630;42.660;23.292;2022-09-09T03:47:34;19.93;;;11.30;;
22929;SDS011;11630;42.660;23.292;2022-09-09T03:50:06;13.37;;;10.70;;
22929;SDS011;11630;42.660;23.292;2022-09-09T03:52:39;14.67;;;11.63;;
22929;SDS011;11630;42.660;23.292;2022-09-09T03:55:09;22.47;;;12.30;;
22929;SDS011;11630;42.660;23.292;2022-09-09T03:57:40;25.53;;;10.37;;
22929;SDS011;11630;42.660;23.292;2022-09-09T04:00:11;15.70;;;10.43;;
22929;SDS011;11630;42.660;23.292;2022-09-09T04:02:42;20.03;;;11.57;;
22929;SDS011;11630;42.660;23.292;2022-09-09T04:05:13;14.83;;;9.77;;
22929;SDS011;11630;42.660;23.292;2022-09-09T04:07:44;15.47;;;9.77;;
22929;SDS011;11630;42.660;23.292;2022-09-09T04:10:15;17.03;;;9.67;;
22929;SDS011;11630;42.660;23.292;2022-09-09T04:12:46;16.47;;;11.10;;
22929;SDS011;11630;42.660;23.292;2022-09-09T04:15:17;13.60;;;10.90;;
22929;SDS011;11630;42.660;23.292;2022-09-09T04:17:48;14.93;;;10.27;;
22929;SDS011;11630;42.660;23.292;2022-09-09T04:20:19;21.50;;;10.83;;
22929;SDS011;11630;42.660;23.292;2022-09-09T04:22:50;22.53;;;11.37;;
22929;SDS011;11630;42.660;23.292;2022-09-09T04:25:22;12.53;;;11.23;;
22929;SDS011;11630;42.660;23.292;2022-09-09T04:27:54;15.40;;;10.53;;
22929;SDS011;11630;42.660;23.292;2022-09-09T04:30:25;17.90;;;12.03;;
22929;SDS011;11630;42.660;23.292;2022-09-09T04:32:56;15.97;;;11.90;;
22929;SDS011;11630;42.660;23.292;2022-09-09T04:35:27;19.17;;;12.03;;
22929;SDS011;11630;42.660;23.292;2022-09-09T04:37:58;18.57;;;11.40;;
22929;SDS011;11630;42.660;23.292;2022-09-09T04:40:29;22.93;;;12.93;;
22929;SDS011;11630;42.660;23.292;2022-09-09T04:43:01;21.10;;;11.63;;
22929;SDS011;11630;42.660;23.292;2022-09-09T04:45:32;18.80;;;12.43;;
22929;SDS011;11630;42.660;23.292;2022-09-09T04:48:03;17.83;;;11.67;;
22929;SDS011;11630;42.660;23.292;2022-09-09T04:50:34;18.77;;;12.50;;
22929;SDS011;11630;42.660;23.292;2022-09-09T04:53:05;24.63;;;14.07;;
22929;SDS011;11630;42.660;23.292;2022-09-09T04:55:36;38.67;;;14.03;;
22929;SDS011;11630;42.660;23.292;2022-09-09T04:58:09;37.80;;;15.73;;
22929;SDS011;11630;42.660;23.292;2022-09-09T05:00:40;32.00;;;14.40;;
22929;SDS011;11630;42.660;23.292;2022-09-09T05:03:11;26.83;;;12.70;;
22929;SDS011;11630;42.660;23.292;2022-09-09T05:05:42;18.83;;;14.20;;
22929;SDS011;11630;42.660;23.292;2022-09-09T05:08:13;18.40;;;13.00;;
22929;SDS011;11630;42.660;23.292;2022-09-09T05:10:44;16.30;;;13.00;;
22929;SDS011;11630;42.660;23.292;2022-09-09T05:13:15;18.30;;;12.27;;
22929;SDS011;11630;42.660;23.292;2022-09-09T05:15:51;21.30;;;12.50;;
22929;SDS011;11630;42.660;23.292;2022-09-09T05:18:35;17.30;;;12.90;;
22929;SDS011;11630;42.660;23.292;2022-09-09T05:21:06;21.97;;;13.10;;
22929;SDS011;11630;42.660;23.292;2022-09-09T05:23:37;18.20;;;13.37;;
22929;SDS011;11630;42.660;23.292;2022-09-09T05:26:15;15.00;;;13.27;;
22929;SDS011;11630;42.660;23.292;2022-09-09T05:28:46;33.10;;;13.87;;
22929;SDS011;11630;42.660;23.292;2022-09-09T05:31:17;19.80;;;13.17;;
22929;SDS011;11630;42.660;23.292;2022-09-09T05:33:48;24.43;;;14.73;;
22929;SDS011;11630;42.660;23.292;2022-09-09T05:36:20;12.33;;;10.70;;
22929;SDS011;11630;42.660;23.292;2022-09-09T05:38:52;15.33;;;11.40;;
22929;SDS011;11630;42.660;23.292;2022-09-09T05:41:23;22.47;;;13.80;;
22929;SDS011;11630;42.660;23.292;2022-09-09T05:43:54;25.73;;;13.50;;
22929;SDS011;11630;42.660;23.292;2022-09-09T05:46:24;19.57;;;13.97;;
22929;SDS011;11630;42.660;23.292;2022-09-09T05:48:55;13.80;;;12.33;;
22929;SDS011;11630;42.660;23.292;2022-09-09T05:51:26;21.63;;;12.73;;
22929;SDS011;11630;42.660;23.292;2022-09-09T05:53:58;17.03;;;13.03;;
22929;SDS011;11630;42.660;23.292;2022-09-09T05:56:29;13.47;;;11.57;;
22929;SDS011;11630;42.660;23.292;2022-09-09T05:59:00;14.80;;;13.20;;
22929;SDS011;11630;42.660;23.292;2022-09-09T06:01:31;18.40;;;13.57;;
22929;SDS011;11630;42.660;23.292;2022-09-09T06:04:03;19.13;;;12.93;;
22929;SDS011;11630;42.660;23.292;2022-09-09T06:06:37;15.40;;;12.00;;
22929;SDS011;11630;42.660;23.292;2022-09-09T06:09:09;19.37;;;11.97;;
22929;SDS011;11630;42.660;23.292;2022-09-09T06:11:39;15.03;;;12.93;;
22929;SDS011;11630;42.660;23.292;2022-09-09T06:14:10;28.00;;;17.60;;
22929;SDS011;11630;42.660;23.292;2022-09-09T06:16:41;18.03;;;11.07;;
22929;SDS011;11630;42.660;23.292;2022-09-09T06:19:12;15.83;;;10.87;;
22929;SDS011;11630;42.660;23.292;2022-09-09T06:21:49;17.57;;;11.47;;
22929;SDS011;11630;42.660;23.292;2022-09-09T06:24:20;22.40;;;11.67;;
22929;SDS011;11630;42.660;23.292;2022-09-09T06:26:51;15.47;;;11.20;;
22929;SDS011;11630;42.660;23.292;2022-09-09T06:29:21;14.90;;;11.20;;
22929;SDS011;11630;42.660;23.292;2022-09-09T06:31:52;15.87;;;11.20;;
22929;SDS011;11630;42.660;23.292;2022-09-09T06:34:23;23.60;;;11.87;;
22929;SDS011;11630;42.660;23.292;2022-09-09T06:36:53;11.70;;;10.50;;
22929;SDS011;11630;42.660;23.292;2022-09-09T06:39:23;16.80;;;9.57;;
22929;SDS011;11630;42.660;23.292;2022-09-09T06:41:54;10.53;;;9.37;;
22929;SDS011;11630;42.660;23.292;2022-09-09T06:44:26;10.00;;;8.77;;
22929;SDS011;11630;42.660;23.292;2022-09-09T06:46:56;11.90;;;9.73;;
22929;SDS011;11630;42.660;23.292;2022-09-09T06:49:27;14.23;;;8.63;;
22929;SDS011;11630;42.660;23.292;2022-09-09T06:51:57;16.00;;;9.03;;
22929;SDS011;11630;42.660;23.292;2022-09-09T06:54:28;12.77;;;9.80;;
22929;SDS011;11630;42.660;23.292;2022-09-09T06:56:59;13.80;;;9.43;;
22929;SDS011;11630;42.660;23.292;2022-09-09T06:59:30;14.10;;;9.33;;
22929;SDS011;11630;42.660;23.292;2022-09-09T07:02:00;21.93;;;9.07;;
22929;SDS011;11630;42.660;23.292;2022-09-09T07:04:31;15.03;;;8.70;;
22929;SDS011;11630;42.660;23.292;2022-09-09T07:07:02;13.43;;;8.63;;
22929;SDS011;11630;42.660;23.292;2022-09-09T07:09:33;9.43;;;8.37;;
22929;SDS011;11630;42.660;23.292;2022-09-09T07:12:04;11.03;;;9.23;;
22929;SDS011;11630;42.660;23.292;2022-09-09T07:14:35;11.43;;;8.43;;
22929;SDS011;11630;42.660;23.292;2022-09-09T07:17:06;12.97;;;8.13;;
22929;SDS011;11630;42.660;23.292;2022-09-09T07:19:37;11.03;;;9.13;;
22929;SDS011;11630;42.660;23.292;2022-09-09T07:22:07;12.20;;;8.93;;
22929;SDS011;11630;42.660;23.292;2022-09-09T07:24:39;11.90;;;8.77;;
22929;SDS011;11630;42.660;23.292;2022-09-09T07:27:10;10.40;;;8.50;;
22929;SDS011;11630;42.660;23.292;2022-09-09T07:29:40;10.13;;;9.07;;
22929;SDS011;11630;42.660;23.292;2022-09-09T07:32:11;10.37;;;9.27;;
22929;SDS011;11630;42.660;23.292;2022-09-09T07:34:45;13.20;;;8.80;;
22929;SDS011;11630;42.660;23.292;2022-09-09T07:37:16;16.30;;;9.90;;
22929;SDS011;11630;42.660;23.292;2022-09-09T07:39:47;13.30;;;8.87;;
22929;SDS011;11630;42.660;23.292;2022-09-09T07:42:17;9.30;;;8.33;;
22929;SDS011;11630;42.660;23.292;2022-09-09T07:44:49;11.63;;;7.57;;
22929;SDS011;11630;42.660;23.292;2022-09-09T07:47:20;13.80;;;7.87;;
22929;SDS011;11630;42.660;23.292;2022-09-09T07:49:51;14.03;;;8.77;;
22929;SDS011;11630;42.660;23.292;2022-09-09T07:52:22;10.43;;;8.83;;
22929;SDS011;11630;42.660;23.292;2022-09-09T07:54:53;11.00;;;8.33;;
22929;SDS011;11630;42.660;23.292;2022-09-09T07:57:24;18.00;;;8.20;;
22929;SDS011;11630;42.660;23.292;2022-09-09T07:59:55;13.87;;;7.67;;
22929;SDS011;11630;42.660;23.292;2022-09-09T08:02:26;11.10;;;8.03;;
22929;SDS011;11630;42.660;23.292;2022-09-09T08:04:57;13.97;;;8.33;;
22929;SDS011;11630;42.660;23.292;2022-09-09T08:07:27;12.33;;;7.83;;
22929;SDS011;11630;42.660;23.292;2022-09-09T08:09:58;13.37;;;8.07;;
22929;SDS011;11630;42.660;23.292;2022-09-09T08:12:29;9.47;;;7.13;;
22929;SDS011;11630;42.660;23.292;2022-09-09T08:15:00;12.30;;;7.63;;
22929;SDS011;11630;42.660;23.292;2022-09-09T08:17:31;9.07;;;7.00;;
22929;SDS011;11630;42.660;23.292;2022-09-09T08:20:02;9.97;;;7.70;;
22929;SDS011;11630;42.660;23.292;2022-09-09T08:22:33;15.60;;;8.20;;
22929;SDS011;11630;42.660;23.292;2022-09-09T08:25:05;13.03;;;7.50;;
22929;SDS011;11630;42.660;23.292;2022-09-09T08:27:36;12.73;;;6.83;;
22929;SDS011;11630;42.660;23.292;2022-09-09T08:30:08;11.47;;;6.77;;
22929;SDS011;11630;42.660;23.292;2022-09-09T08:32:39;14.53;;;7.27;;
22929;SDS011;11630;42.660;23.292;2022-09-09T08:35:10;14.27;;;7.30;;
22929;SDS011;11630;42.660;23.292;2022-09-09T08:37:41;8.77;;;7.23;;
22929;SDS011;11630;42.660;23.292;2022-09-09T08:40:17;11.10;;;7.87;;
22929;SDS011;11630;42.660;23.292;2022-09-09T08:42:49;10.00;;;6.77;;
22929;SDS011;11630;42.660;23.292;2022-09-09T08:50:53;11.67;;;6.90;;
22929;SDS011;11630;42.660;23.292;2022-09-09T08:53:24;9.83;;;6.63;;
22929;SDS011;11630;42.660;23.292;2022-09-09T08:56:09;12.40;;;8.40;;
22929;SDS011;11630;42.660;23.292;2022-09-09T08:58:49;10.80;;;7.00;;
22929;SDS011;11630;42.660;23.292;2022-09-09T09:10:08;14.07;;;6.97;;
22929;SDS011;11630;42.660;23.292;2022-09-09T09:12:50;6.60;;;5.87;;
22929;SDS011;11630;42.660;23.292;2022-09-09T09:15:25;11.47;;;6.33;;
22929;SDS011;11630;42.660;23.292;2022-09-09T09:17:56;8.60;;;6.17;;
22929;SDS011;11630;42.660;23.292;2022-09-09T09:20:32;10.43;;;6.40;;
22929;SDS011;11630;42.660;23.292;2022-09-09T09:23:09;9.27;;;6.63;;
22929;SDS011;11630;42.660;23.292;2022-09-09T09:25:40;7.57;;;6.07;;
22929;SDS011;11630;42.660;23.292;2022-09-09T09:28:23;11.03;;;6.20;;
22929;SDS011;11630;42.660;23.292;2022-09-09T09:31:03;12.30;;;6.27;;
22929;SDS011;11630;42.660;23.292;2022-09-09T09:33:30;10.40;;;7.07;;
22929;SDS011;11630;42.660;23.292;2022-09-09T09:36:00;17.90;;;7.07;;
22929;SDS011;11630;42.660;23.292;2022-09-09T09:38:31;10.63;;;6.77;;
22929;SDS011;11630;42.660;23.292;2022-09-09T09:41:02;7.97;;;6.23;;
22929;SDS011;11630;42.660;23.292;2022-09-09T09:43:33;11.93;;;7.03;;
22929;SDS011;11630;42.660;23.292;2022-09-09T09:46:05;9.87;;;6.23;;
22929;SDS011;11630;42.660;23.292;2022-09-09T09:48:37;11.37;;;5.73;;
22929;SDS011;11630;42.660;23.292;2022-09-09T09:51:09;7.03;;;6.10;;
22929;SDS011;11630;42.660;23.292;2022-09-09T09:53:42;14.03;;;5.97;;
22929;SDS011;11630;42.660;23.292;2022-09-09T09:56:13;9.07;;;5.73;;
22929;SDS011;11630;42.660;23.292;2022-09-09T10:01:20;8.57;;;7.53;;
22929;SDS011;11630;42.660;23.292;2022-09-09T10:03:58;12.73;;;6.80;;
22929;SDS011;11630;42.660;23.292;2022-09-09T10:06:33;8.57;;;5.97;;
22929;SDS011;11630;42.660;23.292;2022-09-09T10:09:20;10.37;;;6.47;;
22929;SDS011;11630;42.660;23.292;2022-09-09T10:14:38;9.73;;;5.87;;
22929;SDS011;11630;42.660;23.292;2022-09-09T10:17:14;17.33;;;6.77;;
22929;SDS011;11630;42.660;23.292;2022-09-09T10:19:52;7.67;;;6.20;;
22929;SDS011;11630;42.660;23.292;2022-09-09T10:22:34;8.27;;;6.00;;
22929;SDS011;11630;42.660;23.292;2022-09-09T10:25:14;17.30;;;5.67;;
22929;SDS011;11630;42.660;23.292;2022-09-09T10:27:53;16.40;;;5.70;;
22929;SDS011;11630;42.660;23.292;2022-09-09T10:30:23;11.70;;;6.30;;
22929;SDS011;11630;42.660;23.292;2022-09-09T10:38:52;10.13;;;6.90;;
22929;SDS011;11630;42.660;23.292;2022-09-09T10:41:38;13.33;;;6.77;;
22929;SDS011;11630;42.660;23.292;2022-09-09T10:45:06;10.07;;;6.50;;
22929;SDS011;11630;42.660;23.292;2022-09-09T10:50:24;9.57;;;6.97;;
22929;SDS011;11630;42.660;23.292;2022-09-09T10:52:55;9.13;;;6.20;;
22929;SDS011;11630;42.660;23.292;2022-09-09T10:55:27;16.73;;;6.70;;
22929;SDS011;11630;42.660;23.292;2022-09-09T10:57:57;13.20;;;7.57;;
22929;SDS011;11630;42.660;23.292;2022-09-09T11:00:37;21.70;;;7.40;;
22929;SDS011;11630;42.660;23.292;2022-09-09T11:03:06;11.73;;;7.23;;
22929;SDS011;11630;42.660;23.292;2022-09-09T11:05:42;11.27;;;7.10;;
22929;SDS011;11630;42.660;23.292;2022-09-09T11:08:18;16.93;;;8.37;;
22929;SDS011;11630;42.660;23.292;2022-09-09T11:10:59;15.23;;;8.27;;
22929;SDS011;11630;42.660;23.292;2022-09-09T11:13:49;12.20;;;8.40;;
22929;SDS011;11630;42.660;23.292;2022-09-09T11:19:15;10.27;;;7.43;;
22929;SDS011;11630;42.660;23.292;2022-09-09T11:21:48;22.57;;;9.20;;
22929;SDS011;11630;42.660;23.292;2022-09-09T11:27:15;15.80;;;8.00;;
22929;SDS011;11630;42.660;23.292;2022-09-09T11:35:29;14.20;;;8.20;;
22929;SDS011;11630;42.660;23.292;2022-09-09T11:40:58;9.83;;;8.30;;
22929;SDS011;11630;42.660;23.292;2022-09-09T11:43:31;17.57;;;8.10;;
22929;SDS011;11630;42.660;23.292;2022-09-09T11:46:02;13.63;;;7.30;;
22929;SDS011;11630;42.660;23.292;2022-09-09T11:48:34;12.47;;;7.97;;
22929;SDS011;11630;42.660;23.292;2022-09-09T11:51:07;21.43;;;8.60;;
22929;SDS011;11630;42.660;23.292;2022-09-09T11:53:53;15.07;;;8.47;;
22929;SDS011;11630;42.660;23.292;2022-09-09T11:57:04;15.13;;;8.70;;
22929;SDS011;11630;42.660;23.292;2022-09-09T11:58:57;13.93;;;7.73;;
22929;SDS011;11630;42.660;23.292;2022-09-09T12:01:43;63.27;;;12.23;;
22929;SDS011;11630;42.660;23.292;2022-09-09T12:04:17;52.17;;;11.20;;
22929;SDS011;11630;42.660;23.292;2022-09-09T12:12:21;20.93;;;8.30;;
22929;SDS011;11630;42.660;23.292;2022-09-09T12:14:58;17.80;;;8.37;;
22929;SDS011;11630;42.660;23.292;2022-09-09T12:17:46;15.47;;;8.13;;
22929;SDS011;11630;42.660;23.292;2022-09-09T12:20:36;16.30;;;7.60;;
22929;SDS011;11630;42.660;23.292;2022-09-09T12:29:10;12.23;;;8.28;;
22929;SDS011;11630;42.660;23.292;2022-09-09T12:31:44;17.95;;;8.38;;
22929;SDS011;11630;42.660;23.292;2022-09-09T12:34:17;20.20;;;8.50;;
22929;SDS011;11630;42.660;23.292;2022-09-09T12:37:03;15.07;;;7.10;;
22929;SDS011;11630;42.660;23.292;2022-09-09T12:39:58;13.00;;;7.92;;
22929;SDS011;11630;42.660;23.292;2022-09-09T12:42:25;15.68;;;8.65;;
22929;SDS011;11630;42.660;23.292;2022-09-09T12:44:57;18.67;;;7.53;;
22929;SDS011;11630;42.660;23.292;2022-09-09T12:47:46;30.08;;;10.38;;
22929;SDS011;11630;42.660;23.292;2022-09-09T12:50:29;14.13;;;7.83;;
22929;SDS011;11630;42.660;23.292;2022-09-09T12:53:01;15.63;;;9.83;;
22929;SDS011;11630;42.660;23.292;2022-09-09T12:55:35;18.00;;;8.17;;
22929;SDS011;11630;42.660;23.292;2022-09-09T12:58:05;14.00;;;8.43;;
22929;SDS011;11630;42.660;23.292;2022-09-09T13:00:35;10.53;;;7.53;;
22929;SDS011;11630;42.660;23.292;2022-09-09T13:03:17;14.80;;;8.70;;
22929;SDS011;11630;42.660;23.292;2022-09-09T13:05:50;17.57;;;7.03;;
22929;SDS011;11630;42.660;23.292;2022-09-09T13:08:22;14.40;;;8.07;;
22929;SDS011;11630;42.660;23.292;2022-09-09T13:10:57;17.27;;;8.13;;
22929;SDS011;11630;42.660;23.292;2022-09-09T13:13:38;13.90;;;8.05;;
22929;SDS011;11630;42.660;23.292;2022-09-09T13:16:18;15.30;;;8.07;;
22929;SDS011;11630;42.660;23.292;2022-09-09T13:18:55;18.80;;;8.20;;
22929;SDS011;11630;42.660;23.292;2022-09-09T13:21:33;15.93;;;8.00;;
22929;SDS011;11630;42.660;23.292;2022-09-09T13:24:24;17.50;;;8.37;;
22929;SDS011;11630;42.660;23.292;2022-09-09T13:27:02;18.20;;;7.10;;
22929;SDS011;11630;42.660;23.292;2022-09-09T13:29:36;16.77;;;8.33;;
22929;SDS011;11630;42.660;23.292;2022-09-09T13:32:12;16.57;;;8.40;;
22929;SDS011;11630;42.660;23.292;2022-09-09T13:34:51;19.37;;;8.73;;
22929;SDS011;11630;42.660;23.292;2022-09-09T13:37:38;23.27;;;9.30;;
22929;SDS011;11630;42.660;23.292;2022-09-09T13:40:17;18.23;;;8.43;;
22929;SDS011;11630;42.660;23.292;2022-09-09T13:42:46;24.40;;;11.70;;
22929;SDS011;11630;42.660;23.292;2022-09-09T13:45:18;31.17;;;11.33;;
22929;SDS011;11630;42.660;23.292;2022-09-09T13:47:49;21.53;;;8.30;;
22929;SDS011;11630;42.660;23.292;2022-09-09T13:52:56;18.87;;;8.97;;
22929;SDS011;11630;42.660;23.292;2022-09-09T13:55:27;18.10;;;8.93;;
22929;SDS011;11630;42.660;23.292;2022-09-09T13:58:01;19.43;;;8.47;;
22929;SDS011;11630;42.660;23.292;2022-09-09T14:00:33;20.27;;;7.80;;
22929;SDS011;11630;42.660;23.292;2022-09-09T14:03:04;24.40;;;8.93;;
22929;SDS011;11630;42.660;23.292;2022-09-09T14:05:35;17.03;;;9.87;;
22929;SDS011;11630;42.660;23.292;2022-09-09T14:08:05;14.75;;;9.65;;
22929;SDS011;11630;42.660;23.292;2022-09-09T14:10:36;14.53;;;7.77;;
22929;SDS011;11630;42.660;23.292;2022-09-09T14:13:07;11.43;;;7.40;;
22929;SDS011;11630;42.660;23.292;2022-09-09T14:15:38;16.60;;;7.20;;
22929;SDS011;11630;42.660;23.292;2022-09-09T14:18:11;18.37;;;8.00;;
22929;SDS011;11630;42.660;23.292;2022-09-09T14:20:41;14.75;;;8.40;;
22929;SDS011;11630;42.660;23.292;2022-09-09T14:23:12;15.87;;;8.10;;
22929;SDS011;11630;42.660;23.292;2022-09-09T14:25:42;14.73;;;7.77;;
22929;SDS011;11630;42.660;23.292;2022-09-09T14:28:13;24.60;;;9.27;;
22929;SDS011;11630;42.660;23.292;2022-09-09T14:30:44;22.77;;;10.37;;
22929;SDS011;11630;42.660;23.292;2022-09-09T14:33:15;16.87;;;8.33;;
22929;SDS011;11630;42.660;23.292;2022-09-09T14:35:45;20.43;;;9.00;;
22929;SDS011;11630;42.660;23.292;2022-09-09T14:38:16;18.77;;;7.83;;
22929;SDS011;11630;42.660;23.292;2022-09-09T14:40:48;20.13;;;8.87;;
22929;SDS011;11630;42.660;23.292;2022-09-09T14:43:18;16.17;;;8.13;;
22929;SDS011;11630;42.660;23.292;2022-09-09T14:45:57;19.00;;;7.80;;
22929;SDS011;11630;42.660;23.292;2022-09-09T14:48:27;15.73;;;8.23;;
22929;SDS011;11630;42.660;23.292;2022-09-09T14:51:08;18.73;;;7.40;;
22929;SDS011;11630;42.660;23.292;2022-09-09T14:53:41;30.20;;;8.53;;
22929;SDS011;11630;42.660;23.292;2022-09-09T14:56:14;18.12;;;8.10;;
22929;SDS011;11630;42.660;23.292;2022-09-09T14:58:46;21.10;;;8.73;;
22929;SDS011;11630;42.660;23.292;2022-09-09T15:01:18;22.13;;;8.83;;
22929;SDS011;11630;42.660;23.292;2022-09-09T15:03:55;28.30;;;9.03;;
22929;SDS011;11630;42.660;23.292;2022-09-09T15:06:28;15.67;;;7.53;;
22929;SDS011;11630;42.660;23.292;2022-09-09T15:09:02;13.55;;;7.92;;
22929;SDS011;11630;42.660;23.292;2022-09-09T15:11:34;15.20;;;7.37;;
22929;SDS011;11630;42.660;23.292;2022-09-09T15:14:07;21.17;;;9.00;;
22929;SDS011;11630;42.660;23.292;2022-09-09T15:16:38;11.15;;;7.75;;
22929;SDS011;11630;42.660;23.292;2022-09-09T15:19:09;27.27;;;9.07;;
22929;SDS011;11630;42.660;23.292;2022-09-09T15:21:40;29.95;;;8.85;;
22929;SDS011;11630;42.660;23.292;2022-09-09T15:24:10;25.10;;;8.10;;
22929;SDS011;11630;42.660;23.292;2022-09-09T15:26:41;38.17;;;9.85;;
22929;SDS011;11630;42.660;23.292;2022-09-09T15:29:11;23.32;;;8.43;;
22929;SDS011;11630;42.660;23.292;2022-09-09T15:31:42;15.93;;;8.15;;
22929;SDS011;11630;42.660;23.292;2022-09-09T15:34:13;15.30;;;8.23;;
22929;SDS011;11630;42.660;23.292;2022-09-09T15:36:43;16.90;;;7.30;;
22929;SDS011;11630;42.660;23.292;2022-09-09T15:39:15;12.70;;;6.62;;
22929;SDS011;11630;42.660;23.292;2022-09-09T15:41:47;10.90;;;7.63;;
22929;SDS011;11630;42.660;23.292;2022-09-09T15:44:18;31.13;;;9.83;;
22929;SDS011;11630;42.660;23.292;2022-09-09T15:46:50;20.80;;;10.23;;
22929;SDS011;11630;42.660;23.292;2022-09-09T15:49:23;17.43;;;8.03;;
22929;SDS011;11630;42.660;23.292;2022-09-09T15:51:55;20.63;;;9.60;;
22929;SDS011;11630;42.660;23.292;2022-09-09T15:54:26;23.80;;;9.87;;
22929;SDS011;11630;42.660;23.292;2022-09-09T15:56:59;25.57;;;9.07;;
22929;SDS011;11630;42.660;23.292;2022-09-09T15:59:30;26.93;;;9.88;;
22929;SDS011;11630;42.660;23.292;2022-09-09T16:02:03;12.77;;;8.03;;
22929;SDS011;11630;42.660;23.292;2022-09-09T16:04:33;15.93;;;8.43;;
22929;SDS011;11630;42.660;23.292;2022-09-09T16:07:05;17.73;;;9.23;;
22929;SDS011;11630;42.660;23.292;2022-09-09T16:09:36;13.80;;;8.47;;
22929;SDS011;11630;42.660;23.292;2022-09-09T16:12:07;17.40;;;8.57;;